sensor_id;sensor_type;location;lat;lon;timestamp;P1;durP1;ratioP1;P2;durP2;ratioP2
2710;SDS011;20721;47.402;8.550;2023-05-20T00:00:26;11.73;;;11.73;;
2710;SDS011;20721;47.402;8.550;2023-05-20T00:01:25;11.20;;;11.20;;
2710;SDS011;20721;47.402;8.550;2023-05-20T00:03:25;11.74;;;11.74;;
2710;SDS011;20721;47.402;8.550;2023-05-20T00:05:25;9.86;;;9.86;;
2710;SDS011;20721;47.402;8.550;2023-05-20T00:06:25;9.80;;;9.80;;
2710;SDS011;20721;47.402;8.550;2023-05-20T00:07:25;8.61;;;8.61;;
2710;SDS011;20721;47.402;8.550;2023-05-20T00:10:25;9.85;;;9.85;;
2710;SDS011;20721;47.402;8.550;2023-05-20T00:11:25;10.39;;;10.39;;
2710;SDS011;20721;47.402;8.550;2023-05-20T00:12:25;9.28;;;9.28;;
2710;SDS011;20721;47.402;8.550;2023-05-20T00:13:25;9.37;;;9.37;;
2710;SDS011;20721;47.402;8.550;2023-05-20T00:15:25;10.05;;;10.05;;
2710;SDS011;20721;47.402;8.550;2023-05-20T00:17:25;9.97;;;9.97;;
2710;SDS011;20721;47.402;8.550;2023-05-20T00:18:25;10.38;;;10.38;;
2710;SDS011;20721;47.402;8.550;2023-05-20T00:20:25;8.97;;;8.97;;
2710;SDS011;20721;47.402;8.550;2023-05-20T00:21:25;9.17;;;9.17;;
2710;SDS011;20721;47.402;8.550;2023-05-20T00:22:25;9.88;;;9.88;;
2710;SDS011;20721;47.402;8.550;2023-05-20T00:23:25;9.29;;;9.29;;
2710;SDS011;20721;47.402;8.550;2023-05-20T00:24:26;9.34;;;9.34;;
2710;SDS011;20721;47.402;8.550;2023-05-20T00:25:25;9.02;;;9.02;;
2710;SDS011;20721;47.402;8.550;2023-05-20T00:28:25;9.56;;;9.56;;
2710;SDS011;20721;47.402;8.550;2023-05-20T00:29:25;8.75;;;8.75;;
2710;SDS011;20721;47.402;8.550;2023-05-20T00:30:25;9.48;;;9.42;;
2710;SDS011;20721;47.402;8.550;2023-05-20T00:31:25;9.55;;;9.55;;
2710;SDS011;20721;47.402;8.550;2023-05-20T00:32:25;8.74;;;8.74;;
2710;SDS011;20721;47.402;8.550;2023-05-20T00:33:25;9.54;;;9.54;;
2710;SDS011;20721;47.402;8.550;2023-05-20T00:34:25;9.79;;;9.79;;
2710;SDS011;20721;47.402;8.550;2023-05-20T00:35:25;8.85;;;8.85;;
2710;SDS011;20721;47.402;8.550;2023-05-20T00:37:25;10.50;;;10.50;;
2710;SDS011;20721;47.402;8.550;2023-05-20T00:38:25;9.21;;;9.21;;
2710;SDS011;20721;47.402;8.550;2023-05-20T00:40:26;9.58;;;9.58;;
2710;SDS011;20721;47.402;8.550;2023-05-20T00:41:25;9.79;;;9.79;;
2710;SDS011;20721;47.402;8.550;2023-05-20T00:42:29;9.57;;;9.57;;
2710;SDS011;20721;47.402;8.550;2023-05-20T00:43:25;10.02;;;10.02;;
2710;SDS011;20721;47.402;8.550;2023-05-20T00:44:27;9.54;;;9.54;;
2710;SDS011;20721;47.402;8.550;2023-05-20T00:45:25;10.36;;;10.36;;
2710;SDS011;20721;47.402;8.550;2023-05-20T00:47:28;10.29;;;10.29;;
2710;SDS011;20721;47.402;8.550;2023-05-20T00:48:25;10.17;;;10.17;;
2710;SDS011;20721;47.402;8.550;2023-05-20T00:49:26;9.04;;;9.04;;
2710;SDS011;20721;47.402;8.550;2023-05-20T00:50:26;8.87;;;8.87;;
2710;SDS011;20721;47.402;8.550;2023-05-20T00:51:25;9.73;;;9.73;;
2710;SDS011;20721;47.402;8.550;2023-05-20T00:53:26;10.05;;;10.05;;
2710;SDS011;20721;47.402;8.550;2023-05-20T00:55:25;9.83;;;9.83;;
2710;SDS011;20721;47.402;8.550;2023-05-20T00:57:26;10.15;;;10.15;;
2710;SDS011;20721;47.402;8.550;2023-05-20T00:58:25;10.10;;;10.10;;
2710;SDS011;20721;47.402;8.550;2023-05-20T00:59:25;9.70;;;9.70;;
2710;SDS011;20721;47.402;8.550;2023-05-20T01:01:25;10.25;;;10.25;;
2710;SDS011;20721;47.402;8.550;2023-05-20T01:02:25;10.52;;;10.52;;
2710;SDS011;20721;47.402;8.550;2023-05-20T01:03:26;10.24;;;10.24;;
2710;SDS011;20721;47.402;8.550;2023-05-20T01:04:25;10.47;;;10.47;;
2710;SDS011;20721;47.402;8.550;2023-05-20T01:05:25;9.99;;;9.99;;
2710;SDS011;20721;47.402;8.550;2023-05-20T01:06:25;11.01;;;11.01;;
2710;SDS011;20721;47.402;8.550;2023-05-20T01:07:26;10.79;;;10.79;;
2710;SDS011;20721;47.402;8.550;2023-05-20T01:08:25;10.79;;;10.79;;
2710;SDS011;20721;47.402;8.550;2023-05-20T01:10:25;10.43;;;10.43;;
2710;SDS011;20721;47.402;8.550;2023-05-20T01:12:30;9.52;;;9.52;;
2710;SDS011;20721;47.402;8.550;2023-05-20T01:14:28;9.32;;;9.32;;
2710;SDS011;20721;47.402;8.550;2023-05-20T01:16:27;10.28;;;10.28;;
2710;SDS011;20721;47.402;8.550;2023-05-20T01:17:29;10.93;;;10.93;;
2710;SDS011;20721;47.402;8.550;2023-05-20T01:18:29;10.74;;;10.74;;
2710;SDS011;20721;47.402;8.550;2023-05-20T01:19:35;10.52;;;10.52;;
2710;SDS011;20721;47.402;8.550;2023-05-20T01:20:27;11.06;;;11.06;;
2710;SDS011;20721;47.402;8.550;2023-05-20T01:21:26;11.21;;;11.21;;
2710;SDS011;20721;47.402;8.550;2023-05-20T01:24:25;11.84;;;11.84;;
2710;SDS011;20721;47.402;8.550;2023-05-20T01:25:25;10.51;;;10.51;;
2710;SDS011;20721;47.402;8.550;2023-05-20T01:26:27;10.30;;;10.30;;
2710;SDS011;20721;47.402;8.550;2023-05-20T01:29:27;10.35;;;10.35;;
2710;SDS011;20721;47.402;8.550;2023-05-20T01:30:28;10.21;;;10.21;;
2710;SDS011;20721;47.402;8.550;2023-05-20T01:33:29;10.95;;;10.95;;
2710;SDS011;20721;47.402;8.550;2023-05-20T01:34:26;10.97;;;10.97;;
2710;SDS011;20721;47.402;8.550;2023-05-20T01:36:27;10.72;;;10.72;;
2710;SDS011;20721;47.402;8.550;2023-05-20T01:38:27;10.44;;;10.44;;
2710;SDS011;20721;47.402;8.550;2023-05-20T01:39:26;10.94;;;10.94;;
2710;SDS011;20721;47.402;8.550;2023-05-20T01:40:27;9.81;;;9.81;;
2710;SDS011;20721;47.402;8.550;2023-05-20T01:41:25;11.16;;;11.16;;
2710;SDS011;20721;47.402;8.550;2023-05-20T01:42:26;9.70;;;9.70;;
2710;SDS011;20721;47.402;8.550;2023-05-20T01:43:28;11.12;;;11.04;;
2710;SDS011;20721;47.402;8.550;2023-05-20T01:44:25;11.25;;;11.25;;
2710;SDS011;20721;47.402;8.550;2023-05-20T01:45:25;10.78;;;10.78;;
2710;SDS011;20721;47.402;8.550;2023-05-20T01:46:26;10.83;;;10.83;;
2710;SDS011;20721;47.402;8.550;2023-05-20T01:47:25;10.96;;;10.96;;
2710;SDS011;20721;47.402;8.550;2023-05-20T01:48:26;9.73;;;9.73;;
2710;SDS011;20721;47.402;8.550;2023-05-20T01:50:25;10.76;;;10.76;;
2710;SDS011;20721;47.402;8.550;2023-05-20T01:52:25;10.61;;;10.61;;
2710;SDS011;20721;47.402;8.550;2023-05-20T01:53:25;11.33;;;11.33;;
2710;SDS011;20721;47.402;8.550;2023-05-20T01:54:25;11.13;;;11.13;;
2710;SDS011;20721;47.402;8.550;2023-05-20T01:55:25;10.91;;;10.91;;
2710;SDS011;20721;47.402;8.550;2023-05-20T01:56:26;10.94;;;10.94;;
2710;SDS011;20721;47.402;8.550;2023-05-20T01:57:27;10.93;;;10.93;;
2710;SDS011;20721;47.402;8.550;2023-05-20T01:58:25;10.88;;;10.88;;
2710;SDS011;20721;47.402;8.550;2023-05-20T01:59:26;10.62;;;10.62;;
2710;SDS011;20721;47.402;8.550;2023-05-20T02:00:25;10.80;;;10.80;;
2710;SDS011;20721;47.402;8.550;2023-05-20T02:01:25;11.42;;;11.42;;
2710;SDS011;20721;47.402;8.550;2023-05-20T02:02:26;11.53;;;11.53;;
2710;SDS011;20721;47.402;8.550;2023-05-20T02:03:25;10.72;;;10.72;;
2710;SDS011;20721;47.402;8.550;2023-05-20T02:04:28;11.75;;;11.75;;
2710;SDS011;20721;47.402;8.550;2023-05-20T02:05:25;11.42;;;11.42;;
2710;SDS011;20721;47.402;8.550;2023-05-20T02:06:25;11.24;;;11.24;;
2710;SDS011;20721;47.402;8.550;2023-05-20T02:07:26;10.25;;;10.25;;
2710;SDS011;20721;47.402;8.550;2023-05-20T02:08:26;11.24;;;11.24;;
2710;SDS011;20721;47.402;8.550;2023-05-20T02:09:27;10.46;;;10.46;;
2710;SDS011;20721;47.402;8.550;2023-05-20T02:10:25;11.20;;;11.20;;
2710;SDS011;20721;47.402;8.550;2023-05-20T02:11:25;11.50;;;11.50;;
2710;SDS011;20721;47.402;8.550;2023-05-20T02:12:26;10.81;;;10.81;;
2710;SDS011;20721;47.402;8.550;2023-05-20T02:13:25;11.19;;;11.19;;
2710;SDS011;20721;47.402;8.550;2023-05-20T02:14:25;10.99;;;10.97;;
2710;SDS011;20721;47.402;8.550;2023-05-20T02:15:26;11.99;;;11.99;;
2710;SDS011;20721;47.402;8.550;2023-05-20T02:17:26;11.22;;;11.22;;
2710;SDS011;20721;47.402;8.550;2023-05-20T02:19:32;12.15;;;12.15;;
2710;SDS011;20721;47.402;8.550;2023-05-20T02:20:25;11.60;;;11.60;;
2710;SDS011;20721;47.402;8.550;2023-05-20T02:21:26;11.23;;;11.23;;
2710;SDS011;20721;47.402;8.550;2023-05-20T02:22:25;10.73;;;10.73;;
2710;SDS011;20721;47.402;8.550;2023-05-20T02:24:26;10.60;;;10.60;;
2710;SDS011;20721;47.402;8.550;2023-05-20T02:25:26;10.51;;;10.51;;
2710;SDS011;20721;47.402;8.550;2023-05-20T02:28:26;10.90;;;10.90;;
2710;SDS011;20721;47.402;8.550;2023-05-20T02:30:26;10.88;;;10.88;;
2710;SDS011;20721;47.402;8.550;2023-05-20T02:32:25;10.98;;;10.98;;
2710;SDS011;20721;47.402;8.550;2023-05-20T02:33:26;10.46;;;10.46;;
2710;SDS011;20721;47.402;8.550;2023-05-20T02:34:26;10.65;;;10.65;;
2710;SDS011;20721;47.402;8.550;2023-05-20T02:35:26;11.51;;;11.51;;
2710;SDS011;20721;47.402;8.550;2023-05-20T02:36:26;11.20;;;11.20;;
2710;SDS011;20721;47.402;8.550;2023-05-20T02:37:28;10.91;;;10.91;;
2710;SDS011;20721;47.402;8.550;2023-05-20T02:40:26;10.82;;;10.82;;
2710;SDS011;20721;47.402;8.550;2023-05-20T02:41:26;11.66;;;11.66;;
2710;SDS011;20721;47.402;8.550;2023-05-20T02:42:26;12.52;;;12.52;;
2710;SDS011;20721;47.402;8.550;2023-05-20T02:43:26;11.26;;;11.26;;
2710;SDS011;20721;47.402;8.550;2023-05-20T02:44:26;11.01;;;11.01;;
2710;SDS011;20721;47.402;8.550;2023-05-20T02:46:27;11.56;;;11.56;;
2710;SDS011;20721;47.402;8.550;2023-05-20T02:47:26;10.81;;;10.81;;
2710;SDS011;20721;47.402;8.550;2023-05-20T02:48:25;11.99;;;11.99;;
2710;SDS011;20721;47.402;8.550;2023-05-20T02:49:26;10.84;;;10.84;;
2710;SDS011;20721;47.402;8.550;2023-05-20T02:50:26;11.36;;;11.36;;
2710;SDS011;20721;47.402;8.550;2023-05-20T02:51:26;12.21;;;12.21;;
2710;SDS011;20721;47.402;8.550;2023-05-20T02:52:25;11.03;;;11.03;;
2710;SDS011;20721;47.402;8.550;2023-05-20T02:53:26;11.66;;;11.66;;
2710;SDS011;20721;47.402;8.550;2023-05-20T02:54:26;11.57;;;11.57;;
2710;SDS011;20721;47.402;8.550;2023-05-20T02:55:26;12.02;;;12.02;;
2710;SDS011;20721;47.402;8.550;2023-05-20T02:58:26;12.53;;;12.53;;
2710;SDS011;20721;47.402;8.550;2023-05-20T02:59:26;12.47;;;12.47;;
2710;SDS011;20721;47.402;8.550;2023-05-20T03:00:26;12.49;;;12.49;;
2710;SDS011;20721;47.402;8.550;2023-05-20T03:01:26;15.80;;;15.80;;
2710;SDS011;20721;47.402;8.550;2023-05-20T03:02:26;13.27;;;13.27;;
2710;SDS011;20721;47.402;8.550;2023-05-20T03:03:26;13.83;;;13.83;;
2710;SDS011;20721;47.402;8.550;2023-05-20T03:04:28;12.34;;;12.34;;
2710;SDS011;20721;47.402;8.550;2023-05-20T03:05:26;12.65;;;12.65;;
2710;SDS011;20721;47.402;8.550;2023-05-20T03:06:26;13.29;;;13.29;;
2710;SDS011;20721;47.402;8.550;2023-05-20T03:07:28;11.66;;;11.65;;
2710;SDS011;20721;47.402;8.550;2023-05-20T03:08:27;12.67;;;12.67;;
2710;SDS011;20721;47.402;8.550;2023-05-20T03:09:26;13.56;;;13.56;;
2710;SDS011;20721;47.402;8.550;2023-05-20T03:10:26;12.00;;;12.00;;
2710;SDS011;20721;47.402;8.550;2023-05-20T03:11:26;11.93;;;11.93;;
2710;SDS011;20721;47.402;8.550;2023-05-20T03:12:26;12.69;;;12.69;;
2710;SDS011;20721;47.402;8.550;2023-05-20T03:13:26;12.14;;;12.14;;
2710;SDS011;20721;47.402;8.550;2023-05-20T03:14:26;11.45;;;11.45;;
2710;SDS011;20721;47.402;8.550;2023-05-20T03:15:26;11.83;;;11.83;;
2710;SDS011;20721;47.402;8.550;2023-05-20T03:16:26;12.21;;;12.21;;
2710;SDS011;20721;47.402;8.550;2023-05-20T03:17:26;12.46;;;12.46;;
2710;SDS011;20721;47.402;8.550;2023-05-20T03:18:26;11.46;;;11.46;;
2710;SDS011;20721;47.402;8.550;2023-05-20T03:19:26;12.43;;;12.43;;
2710;SDS011;20721;47.402;8.550;2023-05-20T03:20:26;12.10;;;12.10;;
2710;SDS011;20721;47.402;8.550;2023-05-20T03:21:26;12.94;;;12.94;;
2710;SDS011;20721;47.402;8.550;2023-05-20T03:22:26;12.27;;;12.27;;
2710;SDS011;20721;47.402;8.550;2023-05-20T03:23:26;12.70;;;12.70;;
2710;SDS011;20721;47.402;8.550;2023-05-20T03:24:27;11.10;;;11.10;;
2710;SDS011;20721;47.402;8.550;2023-05-20T03:25:26;11.33;;;11.33;;
2710;SDS011;20721;47.402;8.550;2023-05-20T03:26:26;12.42;;;12.42;;
2710;SDS011;20721;47.402;8.550;2023-05-20T03:27:26;12.69;;;12.69;;
2710;SDS011;20721;47.402;8.550;2023-05-20T03:28:26;11.81;;;11.81;;
2710;SDS011;20721;47.402;8.550;2023-05-20T03:29:27;12.90;;;12.90;;
2710;SDS011;20721;47.402;8.550;2023-05-20T03:30:26;12.54;;;12.54;;
2710;SDS011;20721;47.402;8.550;2023-05-20T03:31:26;12.59;;;12.59;;
2710;SDS011;20721;47.402;8.550;2023-05-20T03:32:26;13.05;;;13.05;;
2710;SDS011;20721;47.402;8.550;2023-05-20T03:33:26;12.91;;;12.91;;
2710;SDS011;20721;47.402;8.550;2023-05-20T03:34:26;11.67;;;11.66;;
2710;SDS011;20721;47.402;8.550;2023-05-20T03:36:26;13.47;;;13.13;;
2710;SDS011;20721;47.402;8.550;2023-05-20T03:37:26;12.22;;;11.79;;
2710;SDS011;20721;47.402;8.550;2023-05-20T03:39:26;11.87;;;11.87;;
2710;SDS011;20721;47.402;8.550;2023-05-20T03:40:26;13.42;;;13.42;;
2710;SDS011;20721;47.402;8.550;2023-05-20T03:41:26;11.64;;;11.64;;
2710;SDS011;20721;47.402;8.550;2023-05-20T03:43:26;12.58;;;12.58;;
2710;SDS011;20721;47.402;8.550;2023-05-20T03:44:26;12.51;;;12.51;;
2710;SDS011;20721;47.402;8.550;2023-05-20T03:45:26;13.02;;;13.02;;
2710;SDS011;20721;47.402;8.550;2023-05-20T03:46:26;12.41;;;12.41;;
2710;SDS011;20721;47.402;8.550;2023-05-20T03:47:26;11.73;;;11.73;;
2710;SDS011;20721;47.402;8.550;2023-05-20T03:48:26;13.16;;;13.16;;
2710;SDS011;20721;47.402;8.550;2023-05-20T03:49:26;12.57;;;12.57;;
2710;SDS011;20721;47.402;8.550;2023-05-20T03:50:26;12.54;;;12.54;;
2710;SDS011;20721;47.402;8.550;2023-05-20T03:51:26;12.32;;;12.32;;
2710;SDS011;20721;47.402;8.550;2023-05-20T03:52:26;12.98;;;12.97;;
2710;SDS011;20721;47.402;8.550;2023-05-20T03:55:26;11.91;;;11.91;;
2710;SDS011;20721;47.402;8.550;2023-05-20T03:56:26;12.21;;;12.21;;
2710;SDS011;20721;47.402;8.550;2023-05-20T03:57:26;12.64;;;12.64;;
2710;SDS011;20721;47.402;8.550;2023-05-20T03:59:27;13.81;;;13.81;;
2710;SDS011;20721;47.402;8.550;2023-05-20T04:01:26;12.30;;;12.30;;
2710;SDS011;20721;47.402;8.550;2023-05-20T04:02:26;12.27;;;12.27;;
2710;SDS011;20721;47.402;8.550;2023-05-20T04:03:26;12.43;;;12.26;;
2710;SDS011;20721;47.402;8.550;2023-05-20T04:04:26;12.74;;;12.74;;
2710;SDS011;20721;47.402;8.550;2023-05-20T04:05:26;13.61;;;13.60;;
2710;SDS011;20721;47.402;8.550;2023-05-20T04:06:26;12.82;;;12.82;;
2710;SDS011;20721;47.402;8.550;2023-05-20T04:08:27;13.10;;;13.10;;
2710;SDS011;20721;47.402;8.550;2023-05-20T04:11:26;13.11;;;13.11;;
2710;SDS011;20721;47.402;8.550;2023-05-20T04:12:28;12.13;;;12.13;;
2710;SDS011;20721;47.402;8.550;2023-05-20T04:14:26;13.35;;;13.35;;
2710;SDS011;20721;47.402;8.550;2023-05-20T04:16:26;13.02;;;13.02;;
2710;SDS011;20721;47.402;8.550;2023-05-20T04:18:26;13.55;;;13.47;;
2710;SDS011;20721;47.402;8.550;2023-05-20T04:19:28;12.30;;;12.30;;
2710;SDS011;20721;47.402;8.550;2023-05-20T04:20:26;12.91;;;12.91;;
2710;SDS011;20721;47.402;8.550;2023-05-20T04:22:26;12.41;;;12.41;;
2710;SDS011;20721;47.402;8.550;2023-05-20T04:25:26;14.11;;;14.11;;
2710;SDS011;20721;47.402;8.550;2023-05-20T04:26:26;12.94;;;12.93;;
2710;SDS011;20721;47.402;8.550;2023-05-20T04:28:26;12.75;;;12.75;;
2710;SDS011;20721;47.402;8.550;2023-05-20T04:29:28;12.63;;;12.63;;
2710;SDS011;20721;47.402;8.550;2023-05-20T04:30:27;12.87;;;12.87;;
2710;SDS011;20721;47.402;8.550;2023-05-20T04:31:26;11.88;;;11.88;;
2710;SDS011;20721;47.402;8.550;2023-05-20T04:32:27;13.71;;;13.48;;
2710;SDS011;20721;47.402;8.550;2023-05-20T04:33:27;13.59;;;13.05;;
2710;SDS011;20721;47.402;8.550;2023-05-20T04:34:29;13.67;;;13.67;;
2710;SDS011;20721;47.402;8.550;2023-05-20T04:35:26;12.27;;;12.27;;
2710;SDS011;20721;47.402;8.550;2023-05-20T04:36:26;13.38;;;13.38;;
2710;SDS011;20721;47.402;8.550;2023-05-20T04:37:26;12.55;;;12.55;;
2710;SDS011;20721;47.402;8.550;2023-05-20T04:38:26;13.61;;;13.61;;
2710;SDS011;20721;47.402;8.550;2023-05-20T04:39:29;13.56;;;13.56;;
2710;SDS011;20721;47.402;8.550;2023-05-20T04:40:26;13.21;;;13.21;;
2710;SDS011;20721;47.402;8.550;2023-05-20T04:41:26;13.39;;;13.39;;
2710;SDS011;20721;47.402;8.550;2023-05-20T04:42:31;13.43;;;13.43;;
2710;SDS011;20721;47.402;8.550;2023-05-20T04:43:27;12.88;;;12.88;;
2710;SDS011;20721;47.402;8.550;2023-05-20T04:44:26;12.93;;;12.93;;
2710;SDS011;20721;47.402;8.550;2023-05-20T04:45:26;12.78;;;12.78;;
2710;SDS011;20721;47.402;8.550;2023-05-20T04:46:26;13.02;;;13.02;;
2710;SDS011;20721;47.402;8.550;2023-05-20T04:47:26;14.14;;;14.14;;
2710;SDS011;20721;47.402;8.550;2023-05-20T04:48:26;11.74;;;11.74;;
2710;SDS011;20721;47.402;8.550;2023-05-20T04:49:27;12.51;;;12.51;;
2710;SDS011;20721;47.402;8.550;2023-05-20T04:50:26;12.34;;;12.34;;
2710;SDS011;20721;47.402;8.550;2023-05-20T04:51:26;13.32;;;13.31;;
2710;SDS011;20721;47.402;8.550;2023-05-20T04:52:27;12.34;;;12.34;;
2710;SDS011;20721;47.402;8.550;2023-05-20T04:53:26;12.35;;;12.35;;
2710;SDS011;20721;47.402;8.550;2023-05-20T04:55:26;12.40;;;12.33;;
2710;SDS011;20721;47.402;8.550;2023-05-20T04:56:26;12.23;;;12.23;;
2710;SDS011;20721;47.402;8.550;2023-05-20T04:57:26;13.04;;;13.04;;
2710;SDS011;20721;47.402;8.550;2023-05-20T04:58:26;13.85;;;13.85;;
2710;SDS011;20721;47.402;8.550;2023-05-20T05:00:26;13.29;;;13.29;;
2710;SDS011;20721;47.402;8.550;2023-05-20T05:01:26;12.74;;;12.74;;
2710;SDS011;20721;47.402;8.550;2023-05-20T05:02:26;12.80;;;12.80;;
2710;SDS011;20721;47.402;8.550;2023-05-20T05:03:26;13.31;;;13.31;;
2710;SDS011;20721;47.402;8.550;2023-05-20T05:04:26;13.36;;;13.36;;
2710;SDS011;20721;47.402;8.550;2023-05-20T05:05:26;13.55;;;13.55;;
2710;SDS011;20721;47.402;8.550;2023-05-20T05:06:26;11.95;;;11.95;;
2710;SDS011;20721;47.402;8.550;2023-05-20T05:07:26;12.68;;;12.68;;
2710;SDS011;20721;47.402;8.550;2023-05-20T05:08:26;12.76;;;12.73;;
2710;SDS011;20721;47.402;8.550;2023-05-20T05:09:26;13.73;;;13.73;;
2710;SDS011;20721;47.402;8.550;2023-05-20T05:10:26;13.40;;;13.40;;
2710;SDS011;20721;47.402;8.550;2023-05-20T05:11:26;13.16;;;13.16;;
2710;SDS011;20721;47.402;8.550;2023-05-20T05:12:26;14.29;;;14.07;;
2710;SDS011;20721;47.402;8.550;2023-05-20T05:13:26;13.21;;;13.08;;
2710;SDS011;20721;47.402;8.550;2023-05-20T05:14:26;13.43;;;13.31;;
2710;SDS011;20721;47.402;8.550;2023-05-20T05:15:26;13.77;;;13.77;;
2710;SDS011;20721;47.402;8.550;2023-05-20T05:16:26;14.31;;;14.31;;
2710;SDS011;20721;47.402;8.550;2023-05-20T05:17:26;13.64;;;13.64;;
2710;SDS011;20721;47.402;8.550;2023-05-20T05:19:26;12.48;;;12.48;;
2710;SDS011;20721;47.402;8.550;2023-05-20T05:20:26;12.68;;;12.68;;
2710;SDS011;20721;47.402;8.550;2023-05-20T05:22:26;13.45;;;13.45;;
2710;SDS011;20721;47.402;8.550;2023-05-20T05:23:26;13.56;;;13.56;;
2710;SDS011;20721;47.402;8.550;2023-05-20T05:24:26;12.11;;;12.11;;
2710;SDS011;20721;47.402;8.550;2023-05-20T05:25:26;13.30;;;13.30;;
2710;SDS011;20721;47.402;8.550;2023-05-20T05:26:26;12.67;;;12.67;;
2710;SDS011;20721;47.402;8.550;2023-05-20T05:27:26;12.95;;;12.95;;
2710;SDS011;20721;47.402;8.550;2023-05-20T05:28:26;12.76;;;12.76;;
2710;SDS011;20721;47.402;8.550;2023-05-20T05:29:26;13.22;;;13.22;;
2710;SDS011;20721;47.402;8.550;2023-05-20T05:30:26;12.98;;;12.97;;
2710;SDS011;20721;47.402;8.550;2023-05-20T05:32:26;12.97;;;12.97;;
2710;SDS011;20721;47.402;8.550;2023-05-20T05:33:26;13.34;;;13.34;;
2710;SDS011;20721;47.402;8.550;2023-05-20T05:34:26;12.68;;;12.68;;
2710;SDS011;20721;47.402;8.550;2023-05-20T05:35:26;14.01;;;14.01;;
2710;SDS011;20721;47.402;8.550;2023-05-20T05:36:26;12.85;;;12.85;;
2710;SDS011;20721;47.402;8.550;2023-05-20T05:37:26;13.95;;;13.78;;
2710;SDS011;20721;47.402;8.550;2023-05-20T05:39:26;13.11;;;13.04;;
2710;SDS011;20721;47.402;8.550;2023-05-20T05:40:26;13.08;;;12.74;;
2710;SDS011;20721;47.402;8.550;2023-05-20T05:41:26;14.07;;;13.70;;
2710;SDS011;20721;47.402;8.550;2023-05-20T05:42:26;13.85;;;13.83;;
2710;SDS011;20721;47.402;8.550;2023-05-20T05:43:26;13.08;;;13.08;;
2710;SDS011;20721;47.402;8.550;2023-05-20T05:44:26;13.34;;;13.34;;
2710;SDS011;20721;47.402;8.550;2023-05-20T05:46:26;14.39;;;14.39;;
2710;SDS011;20721;47.402;8.550;2023-05-20T05:47:26;13.14;;;13.14;;
2710;SDS011;20721;47.402;8.550;2023-05-20T05:48:26;13.52;;;13.46;;
2710;SDS011;20721;47.402;8.550;2023-05-20T05:49:26;13.20;;;13.20;;
2710;SDS011;20721;47.402;8.550;2023-05-20T05:50:26;14.66;;;14.66;;
2710;SDS011;20721;47.402;8.550;2023-05-20T05:51:26;13.64;;;13.64;;
2710;SDS011;20721;47.402;8.550;2023-05-20T05:52:26;14.33;;;14.33;;
2710;SDS011;20721;47.402;8.550;2023-05-20T05:54:26;13.94;;;13.94;;
2710;SDS011;20721;47.402;8.550;2023-05-20T05:56:26;14.53;;;14.53;;
2710;SDS011;20721;47.402;8.550;2023-05-20T05:57:26;14.96;;;14.96;;
2710;SDS011;20721;47.402;8.550;2023-05-20T05:58:26;13.77;;;13.77;;
2710;SDS011;20721;47.402;8.550;2023-05-20T05:59:26;15.70;;;15.70;;
2710;SDS011;20721;47.402;8.550;2023-05-20T06:00:26;14.70;;;14.70;;
2710;SDS011;20721;47.402;8.550;2023-05-20T06:01:26;13.87;;;13.87;;
2710;SDS011;20721;47.402;8.550;2023-05-20T06:02:26;14.84;;;14.84;;
2710;SDS011;20721;47.402;8.550;2023-05-20T06:03:26;14.14;;;14.14;;
2710;SDS011;20721;47.402;8.550;2023-05-20T06:04:26;14.63;;;14.63;;
2710;SDS011;20721;47.402;8.550;2023-05-20T06:05:26;14.11;;;14.11;;
2710;SDS011;20721;47.402;8.550;2023-05-20T06:06:26;14.68;;;14.68;;
2710;SDS011;20721;47.402;8.550;2023-05-20T06:07:26;16.20;;;16.04;;
2710;SDS011;20721;47.402;8.550;2023-05-20T06:08:26;13.51;;;13.51;;
2710;SDS011;20721;47.402;8.550;2023-05-20T06:09:26;14.83;;;14.83;;
2710;SDS011;20721;47.402;8.550;2023-05-20T06:10:26;15.78;;;15.78;;
2710;SDS011;20721;47.402;8.550;2023-05-20T06:11:26;15.07;;;15.07;;
2710;SDS011;20721;47.402;8.550;2023-05-20T06:12:26;16.19;;;16.02;;
2710;SDS011;20721;47.402;8.550;2023-05-20T06:13:26;14.79;;;14.72;;
2710;SDS011;20721;47.402;8.550;2023-05-20T06:14:26;15.13;;;15.10;;
2710;SDS011;20721;47.402;8.550;2023-05-20T06:15:26;15.47;;;15.41;;
2710;SDS011;20721;47.402;8.550;2023-05-20T06:17:26;14.64;;;14.64;;
2710;SDS011;20721;47.402;8.550;2023-05-20T06:18:26;14.34;;;14.34;;
2710;SDS011;20721;47.402;8.550;2023-05-20T06:19:26;15.53;;;15.53;;
2710;SDS011;20721;47.402;8.550;2023-05-20T06:20:26;15.78;;;15.78;;
2710;SDS011;20721;47.402;8.550;2023-05-20T06:21:26;15.32;;;15.32;;
2710;SDS011;20721;47.402;8.550;2023-05-20T06:22:26;15.59;;;15.59;;
2710;SDS011;20721;47.402;8.550;2023-05-20T06:23:26;14.51;;;14.51;;
2710;SDS011;20721;47.402;8.550;2023-05-20T06:24:26;15.37;;;15.37;;
2710;SDS011;20721;47.402;8.550;2023-05-20T06:25:26;15.86;;;15.83;;
2710;SDS011;20721;47.402;8.550;2023-05-20T06:26:26;14.97;;;14.97;;
2710;SDS011;20721;47.402;8.550;2023-05-20T06:28:28;15.96;;;15.96;;
2710;SDS011;20721;47.402;8.550;2023-05-20T06:29:27;16.49;;;16.48;;
2710;SDS011;20721;47.402;8.550;2023-05-20T06:30:27;17.14;;;17.11;;
2710;SDS011;20721;47.402;8.550;2023-05-20T06:31:26;16.38;;;16.38;;
2710;SDS011;20721;47.402;8.550;2023-05-20T06:32:26;16.37;;;16.28;;
2710;SDS011;20721;47.402;8.550;2023-05-20T06:33:28;17.19;;;16.65;;
2710;SDS011;20721;47.402;8.550;2023-05-20T06:34:26;15.70;;;15.69;;
2710;SDS011;20721;47.402;8.550;2023-05-20T06:35:26;15.92;;;15.92;;
2710;SDS011;20721;47.402;8.550;2023-05-20T06:36:26;14.65;;;14.65;;
2710;SDS011;20721;47.402;8.550;2023-05-20T06:37:26;15.20;;;15.00;;
2710;SDS011;20721;47.402;8.550;2023-05-20T06:39:26;15.51;;;15.51;;
2710;SDS011;20721;47.402;8.550;2023-05-20T06:40:26;16.25;;;16.25;;
2710;SDS011;20721;47.402;8.550;2023-05-20T06:41:26;14.77;;;14.77;;
2710;SDS011;20721;47.402;8.550;2023-05-20T06:42:26;16.29;;;16.26;;
2710;SDS011;20721;47.402;8.550;2023-05-20T06:43:26;16.04;;;16.02;;
2710;SDS011;20721;47.402;8.550;2023-05-20T06:44:26;14.96;;;14.96;;
2710;SDS011;20721;47.402;8.550;2023-05-20T06:46:26;16.66;;;16.66;;
2710;SDS011;20721;47.402;8.550;2023-05-20T06:47:26;16.79;;;16.79;;
2710;SDS011;20721;47.402;8.550;2023-05-20T06:48:26;16.15;;;16.15;;
2710;SDS011;20721;47.402;8.550;2023-05-20T06:49:26;17.38;;;17.14;;
2710;SDS011;20721;47.402;8.550;2023-05-20T06:50:26;15.69;;;15.62;;
2710;SDS011;20721;47.402;8.550;2023-05-20T06:51:26;16.62;;;16.61;;
2710;SDS011;20721;47.402;8.550;2023-05-20T06:52:26;16.28;;;16.28;;
2710;SDS011;20721;47.402;8.550;2023-05-20T06:53:26;17.78;;;17.60;;
2710;SDS011;20721;47.402;8.550;2023-05-20T06:54:26;15.89;;;15.78;;
2710;SDS011;20721;47.402;8.550;2023-05-20T06:55:26;16.99;;;16.99;;
2710;SDS011;20721;47.402;8.550;2023-05-20T06:57:26;17.07;;;17.05;;
2710;SDS011;20721;47.402;8.550;2023-05-20T06:58:27;15.99;;;15.90;;
2710;SDS011;20721;47.402;8.550;2023-05-20T06:59:26;16.98;;;16.98;;
2710;SDS011;20721;47.402;8.550;2023-05-20T07:01:28;16.65;;;16.63;;
2710;SDS011;20721;47.402;8.550;2023-05-20T07:02:26;18.03;;;18.03;;
2710;SDS011;20721;47.402;8.550;2023-05-20T07:03:27;16.69;;;16.69;;
2710;SDS011;20721;47.402;8.550;2023-05-20T07:04:26;17.44;;;17.44;;
2710;SDS011;20721;47.402;8.550;2023-05-20T07:05:26;17.21;;;17.04;;
2710;SDS011;20721;47.402;8.550;2023-05-20T07:06:26;17.09;;;17.09;;
2710;SDS011;20721;47.402;8.550;2023-05-20T07:07:27;16.13;;;16.13;;
2710;SDS011;20721;47.402;8.550;2023-05-20T07:08:26;16.40;;;16.40;;
2710;SDS011;20721;47.402;8.550;2023-05-20T07:09:26;16.75;;;16.75;;
2710;SDS011;20721;47.402;8.550;2023-05-20T07:10:26;16.49;;;16.49;;
2710;SDS011;20721;47.402;8.550;2023-05-20T07:11:26;14.48;;;14.48;;